sensor_id;sensor_type;location;lat;lon;timestamp;P1;durP1;ratioP1;P2;durP2;ratioP2
13122;SDS011;6627;50.920;12.050;2023-06-22T00:02:24;16.00;;;14.40;;
13122;SDS011;6627;50.920;12.050;2023-06-22T00:04:53;15.30;;;13.90;;
13122;SDS011;6627;50.920;12.050;2023-06-22T00:07:24;16.53;;;15.00;;
13122;SDS011;6627;50.920;12.050;2023-06-22T00:09:57;17.20;;;15.43;;
13122;SDS011;6627;50.920;12.050;2023-06-22T00:12:30;16.03;;;14.50;;
13122;SDS011;6627;50.920;12.050;2023-06-22T00:15:03;17.63;;;16.03;;
13122;SDS011;6627;50.920;12.050;2023-06-22T00:17:36;18.30;;;16.40;;
13122;SDS011;6627;50.920;12.050;2023-06-22T00:20:08;17.70;;;15.83;;
13122;SDS011;6627;50.920;12.050;2023-06-22T00:22:42;16.73;;;15.23;;
13122;SDS011;6627;50.920;12.050;2023-06-22T00:25:09;18.03;;;16.27;;
13122;SDS011;6627;50.920;12.050;2023-06-22T00:27:38;18.00;;;16.13;;
13122;SDS011;6627;50.920;12.050;2023-06-22T00:30:11;18.23;;;16.60;;
13122;SDS011;6627;50.920;12.050;2023-06-22T00:32:39;17.77;;;16.03;;
13122;SDS011;6627;50.920;12.050;2023-06-22T00:35:07;17.53;;;15.93;;
13122;SDS011;6627;50.920;12.050;2023-06-22T00:37:35;17.47;;;15.87;;
13122;SDS011;6627;50.920;12.050;2023-06-22T00:40:06;16.53;;;15.00;;
13122;SDS011;6627;50.920;12.050;2023-06-22T00:42:38;16.67;;;15.17;;
13122;SDS011;6627;50.920;12.050;2023-06-22T00:45:11;17.23;;;15.40;;
13122;SDS011;6627;50.920;12.050;2023-06-22T00:47:42;17.17;;;15.57;;
13122;SDS011;6627;50.920;12.050;2023-06-22T00:50:11;16.73;;;15.13;;
13122;SDS011;6627;50.920;12.050;2023-06-22T00:52:47;18.43;;;16.40;;
13122;SDS011;6627;50.920;12.050;2023-06-22T00:55:20;18.27;;;16.60;;
13122;SDS011;6627;50.920;12.050;2023-06-22T00:57:49;17.60;;;15.70;;
13122;SDS011;6627;50.920;12.050;2023-06-22T01:00:22;17.97;;;16.10;;
13122;SDS011;6627;50.920;12.050;2023-06-22T01:02:51;17.87;;;16.17;;
13122;SDS011;6627;50.920;12.050;2023-06-22T01:05:21;15.97;;;14.47;;
13122;SDS011;6627;50.920;12.050;2023-06-22T01:07:54;15.47;;;14.03;;
13122;SDS011;6627;50.920;12.050;2023-06-22T01:10:38;16.53;;;14.93;;
13122;SDS011;6627;50.920;12.050;2023-06-22T01:13:16;16.90;;;15.10;;
13122;SDS011;6627;50.920;12.050;2023-06-22T01:16:01;19.37;;;15.00;;
13122;SDS011;6627;50.920;12.050;2023-06-22T01:18:34;15.50;;;14.10;;
13122;SDS011;6627;50.920;12.050;2023-06-22T01:21:11;16.10;;;14.60;;
13122;SDS011;6627;50.920;12.050;2023-06-22T01:23:50;16.60;;;15.07;;
13122;SDS011;6627;50.920;12.050;2023-06-22T01:26:57;17.43;;;15.70;;
13122;SDS011;6627;50.920;12.050;2023-06-22T01:29:38;15.97;;;14.47;;
13122;SDS011;6627;50.920;12.050;2023-06-22T01:32:11;17.70;;;16.00;;
13122;SDS011;6627;50.920;12.050;2023-06-22T01:34:46;17.77;;;16.07;;
13122;SDS011;6627;50.920;12.050;2023-06-22T01:37:20;18.07;;;16.27;;
13122;SDS011;6627;50.920;12.050;2023-06-22T01:39:49;17.80;;;16.00;;
13122;SDS011;6627;50.920;12.050;2023-06-22T01:42:18;17.83;;;16.23;;
13122;SDS011;6627;50.920;12.050;2023-06-22T01:44:49;17.83;;;15.60;;
13122;SDS011;6627;50.920;12.050;2023-06-22T01:47:24;16.77;;;15.07;;
13122;SDS011;6627;50.920;12.050;2023-06-22T01:49:57;17.20;;;15.50;;
13122;SDS011;6627;50.920;12.050;2023-06-22T01:52:44;16.93;;;15.23;;
13122;SDS011;6627;50.920;12.050;2023-06-22T01:55:31;17.77;;;15.70;;
13122;SDS011;6627;50.920;12.050;2023-06-22T01:58:00;18.53;;;16.40;;
13122;SDS011;6627;50.920;12.050;2023-06-22T02:00:46;17.60;;;16.00;;
13122;SDS011;6627;50.920;12.050;2023-06-22T02:03:21;18.43;;;16.60;;
13122;SDS011;6627;50.920;12.050;2023-06-22T02:05:54;16.83;;;15.33;;
13122;SDS011;6627;50.920;12.050;2023-06-22T02:08:41;17.70;;;15.90;;
13122;SDS011;6627;50.920;12.050;2023-06-22T02:11:15;17.97;;;16.23;;
13122;SDS011;6627;50.920;12.050;2023-06-22T02:13:46;19.30;;;15.93;;
13122;SDS011;6627;50.920;12.050;2023-06-22T02:16:15;17.90;;;16.10;;
13122;SDS011;6627;50.920;12.050;2023-06-22T02:18:45;18.33;;;16.57;;
13122;SDS011;6627;50.920;12.050;2023-06-22T02:21:16;19.03;;;17.10;;
13122;SDS011;6627;50.920;12.050;2023-06-22T02:23:44;18.23;;;16.47;;
13122;SDS011;6627;50.920;12.050;2023-06-22T02:26:11;17.90;;;15.80;;
13122;SDS011;6627;50.920;12.050;2023-06-22T02:28:40;17.93;;;16.27;;
13122;SDS011;6627;50.920;12.050;2023-06-22T02:31:07;18.07;;;16.23;;
13122;SDS011;6627;50.920;12.050;2023-06-22T02:33:35;20.50;;;16.87;;
13122;SDS011;6627;50.920;12.050;2023-06-22T02:36:03;18.00;;;16.20;;
13122;SDS011;6627;50.920;12.050;2023-06-22T02:38:34;18.53;;;16.63;;
13122;SDS011;6627;50.920;12.050;2023-06-22T02:41:01;18.07;;;16.23;;
13122;SDS011;6627;50.920;12.050;2023-06-22T02:43:29;18.17;;;16.47;;
13122;SDS011;6627;50.920;12.050;2023-06-22T02:45:56;17.63;;;15.83;;
13122;SDS011;6627;50.920;12.050;2023-06-22T02:48:23;19.97;;;16.33;;
13122;SDS011;6627;50.920;12.050;2023-06-22T02:50:51;20.80;;;17.53;;
13122;SDS011;6627;50.920;12.050;2023-06-22T02:53:19;19.67;;;17.43;;
13122;SDS011;6627;50.920;12.050;2023-06-22T02:55:46;19.87;;;17.97;;
13122;SDS011;6627;50.920;12.050;2023-06-22T02:58:13;20.33;;;18.37;;
13122;SDS011;6627;50.920;12.050;2023-06-22T03:00:41;25.13;;;18.30;;
13122;SDS011;6627;50.920;12.050;2023-06-22T03:03:09;20.10;;;18.30;;
13122;SDS011;6627;50.920;12.050;2023-06-22T03:05:37;19.80;;;17.80;;
13122;SDS011;6627;50.920;12.050;2023-06-22T03:08:07;20.03;;;18.07;;
13122;SDS011;6627;50.920;12.050;2023-06-22T03:10:34;20.40;;;18.33;;
13122;SDS011;6627;50.920;12.050;2023-06-22T03:13:02;20.73;;;18.80;;
13122;SDS011;6627;50.920;12.050;2023-06-22T03:15:30;19.53;;;17.63;;
13122;SDS011;6627;50.920;12.050;2023-06-22T03:17:59;21.70;;;18.23;;
13122;SDS011;6627;50.920;12.050;2023-06-22T03:20:26;20.17;;;17.90;;
13122;SDS011;6627;50.920;12.050;2023-06-22T03:22:58;19.77;;;17.70;;
13122;SDS011;6627;50.920;12.050;2023-06-22T03:25:27;19.27;;;16.67;;
13122;SDS011;6627;50.920;12.050;2023-06-22T03:27:55;18.67;;;16.60;;
13122;SDS011;6627;50.920;12.050;2023-06-22T03:30:22;18.43;;;16.53;;
13122;SDS011;6627;50.920;12.050;2023-06-22T03:32:50;17.13;;;15.23;;
13122;SDS011;6627;50.920;12.050;2023-06-22T03:35:17;16.90;;;15.20;;
13122;SDS011;6627;50.920;12.050;2023-06-22T03:37:44;16.87;;;15.03;;
13122;SDS011;6627;50.920;12.050;2023-06-22T03:40:11;17.93;;;15.60;;
13122;SDS011;6627;50.920;12.050;2023-06-22T03:42:40;16.13;;;14.50;;
13122;SDS011;6627;50.920;12.050;2023-06-22T03:45:07;18.70;;;16.80;;
13122;SDS011;6627;50.920;12.050;2023-06-22T03:47:36;18.43;;;16.53;;
13122;SDS011;6627;50.920;12.050;2023-06-22T03:50:03;19.10;;;17.10;;
13122;SDS011;6627;50.920;12.050;2023-06-22T03:52:31;19.30;;;17.23;;
13122;SDS011;6627;50.920;12.050;2023-06-22T03:54:59;18.20;;;16.40;;
13122;SDS011;6627;50.920;12.050;2023-06-22T03:57:26;20.57;;;16.60;;
13122;SDS011;6627;50.920;12.050;2023-06-22T03:59:56;19.57;;;17.70;;
13122;SDS011;6627;50.920;12.050;2023-06-22T04:02:24;19.30;;;17.50;;
13122;SDS011;6627;50.920;12.050;2023-06-22T04:04:51;19.13;;;17.13;;
13122;SDS011;6627;50.920;12.050;2023-06-22T04:07:19;20.00;;;17.27;;
13122;SDS011;6627;50.920;12.050;2023-06-22T04:09:46;19.27;;;17.37;;
13122;SDS011;6627;50.920;12.050;2023-06-22T04:12:13;20.17;;;18.00;;
13122;SDS011;6627;50.920;12.050;2023-06-22T04:14:40;20.93;;;18.80;;
13122;SDS011;6627;50.920;12.050;2023-06-22T04:17:09;20.63;;;18.53;;
13122;SDS011;6627;50.920;12.050;2023-06-22T04:19:40;19.87;;;17.97;;
13122;SDS011;6627;50.920;12.050;2023-06-22T04:22:07;18.70;;;17.00;;
13122;SDS011;6627;50.920;12.050;2023-06-22T04:24:35;18.83;;;16.10;;
13122;SDS011;6627;50.920;12.050;2023-06-22T04:27:03;18.53;;;16.60;;
13122;SDS011;6627;50.920;12.050;2023-06-22T04:29:31;17.63;;;15.70;;
13122;SDS011;6627;50.920;12.050;2023-06-22T04:31:58;19.70;;;16.90;;
13122;SDS011;6627;50.920;12.050;2023-06-22T04:34:29;20.83;;;18.53;;
13122;SDS011;6627;50.920;12.050;2023-06-22T04:36:57;20.53;;;18.43;;
13122;SDS011;6627;50.920;12.050;2023-06-22T04:39:24;19.53;;;17.60;;
13122;SDS011;6627;50.920;12.050;2023-06-22T04:41:52;18.80;;;16.87;;
13122;SDS011;6627;50.920;12.050;2023-06-22T04:44:25;20.13;;;17.97;;
13122;SDS011;6627;50.920;12.050;2023-06-22T04:46:53;19.53;;;17.60;;
13122;SDS011;6627;50.920;12.050;2023-06-22T04:49:25;21.57;;;19.33;;
13122;SDS011;6627;50.920;12.050;2023-06-22T04:51:59;20.20;;;18.30;;
13122;SDS011;6627;50.920;12.050;2023-06-22T04:54:27;21.10;;;19.00;;
13122;SDS011;6627;50.920;12.050;2023-06-22T04:56:59;21.13;;;19.13;;
13122;SDS011;6627;50.920;12.050;2023-06-22T04:59:27;21.93;;;19.57;;
13122;SDS011;6627;50.920;12.050;2023-06-22T05:01:55;21.27;;;19.10;;
13122;SDS011;6627;50.920;12.050;2023-06-22T05:04:23;22.03;;;19.73;;
13122;SDS011;6627;50.920;12.050;2023-06-22T05:06:51;20.77;;;18.77;;
13122;SDS011;6627;50.920;12.050;2023-06-22T05:09:21;25.03;;;20.47;;
13122;SDS011;6627;50.920;12.050;2023-06-22T05:11:48;23.10;;;20.93;;
13122;SDS011;6627;50.920;12.050;2023-06-22T05:14:16;21.87;;;19.60;;
13122;SDS011;6627;50.920;12.050;2023-06-22T05:16:44;22.07;;;19.77;;
13122;SDS011;6627;50.920;12.050;2023-06-22T05:19:12;22.70;;;20.10;;
13122;SDS011;6627;50.920;12.050;2023-06-22T05:21:39;23.53;;;19.67;;
13122;SDS011;6627;50.920;12.050;2023-06-22T05:24:06;23.10;;;20.20;;
13122;SDS011;6627;50.920;12.050;2023-06-22T05:26:35;22.80;;;20.20;;
13122;SDS011;6627;50.920;12.050;2023-06-22T05:29:02;24.13;;;20.77;;
13122;SDS011;6627;50.920;12.050;2023-06-22T05:31:30;22.70;;;20.30;;
13122;SDS011;6627;50.920;12.050;2023-06-22T05:33:57;27.93;;;22.13;;
13122;SDS011;6627;50.920;12.050;2023-06-22T05:36:25;30.47;;;23.13;;
13122;SDS011;6627;50.920;12.050;2023-06-22T05:38:52;26.00;;;21.43;;
13122;SDS011;6627;50.920;12.050;2023-06-22T05:41:20;25.07;;;21.27;;
13122;SDS011;6627;50.920;12.050;2023-06-22T05:43:48;24.83;;;22.07;;
13122;SDS011;6627;50.920;12.050;2023-06-22T05:46:16;23.10;;;20.60;;
13122;SDS011;6627;50.920;12.050;2023-06-22T05:48:43;27.17;;;22.17;;
13122;SDS011;6627;50.920;12.050;2023-06-22T05:51:11;24.57;;;21.97;;
13122;SDS011;6627;50.920;12.050;2023-06-22T05:53:38;23.80;;;21.57;;
13122;SDS011;6627;50.920;12.050;2023-06-22T05:56:05;28.33;;;23.40;;
13122;SDS011;6627;50.920;12.050;2023-06-22T05:58:34;25.67;;;23.30;;
13122;SDS011;6627;50.920;12.050;2023-06-22T06:01:03;26.47;;;23.80;;
13122;SDS011;6627;50.920;12.050;2023-06-22T06:03:30;26.27;;;23.60;;
13122;SDS011;6627;50.920;12.050;2023-06-22T06:05:57;27.90;;;23.70;;
13122;SDS011;6627;50.920;12.050;2023-06-22T06:08:25;26.47;;;23.17;;
13122;SDS011;6627;50.920;12.050;2023-06-22T06:10:52;28.50;;;24.93;;
13122;SDS011;6627;50.920;12.050;2023-06-22T06:13:20;25.07;;;22.47;;
13122;SDS011;6627;50.920;12.050;2023-06-22T06:15:47;24.60;;;22.03;;
13122;SDS011;6627;50.920;12.050;2023-06-22T06:18:18;23.60;;;21.10;;
13122;SDS011;6627;50.920;12.050;2023-06-22T06:20:45;22.30;;;20.17;;
13122;SDS011;6627;50.920;12.050;2023-06-22T06:23:12;23.77;;;19.03;;
13122;SDS011;6627;50.920;12.050;2023-06-22T06:25:39;24.10;;;20.17;;
13122;SDS011;6627;50.920;12.050;2023-06-22T06:28:06;24.47;;;18.60;;
13122;SDS011;6627;50.920;12.050;2023-06-22T06:30:34;24.80;;;19.27;;
13122;SDS011;6627;50.920;12.050;2023-06-22T06:33:03;21.00;;;18.57;;
13122;SDS011;6627;50.920;12.050;2023-06-22T06:35:35;23.27;;;17.97;;
13122;SDS011;6627;50.920;12.050;2023-06-22T06:38:03;21.43;;;18.03;;
13122;SDS011;6627;50.920;12.050;2023-06-22T06:40:30;21.00;;;16.97;;
13122;SDS011;6627;50.920;12.050;2023-06-22T06:42:58;16.60;;;14.53;;
13122;SDS011;6627;50.920;12.050;2023-06-22T06:45:25;15.43;;;13.87;;
13122;SDS011;6627;50.920;12.050;2023-06-22T06:47:54;15.83;;;13.97;;
13122;SDS011;6627;50.920;12.050;2023-06-22T06:50:22;16.03;;;14.20;;
13122;SDS011;6627;50.920;12.050;2023-06-22T06:52:50;17.17;;;13.10;;
13122;SDS011;6627;50.920;12.050;2023-06-22T06:55:18;14.93;;;13.23;;
13122;SDS011;6627;50.920;12.050;2023-06-22T06:57:46;14.63;;;12.27;;
13122;SDS011;6627;50.920;12.050;2023-06-22T07:00:15;16.70;;;12.37;;
13122;SDS011;6627;50.920;12.050;2023-06-22T07:02:45;14.17;;;11.87;;
13122;SDS011;6627;50.920;12.050;2023-06-22T07:05:14;14.40;;;11.50;;
13122;SDS011;6627;50.920;12.050;2023-06-22T07:07:41;19.90;;;12.47;;
13122;SDS011;6627;50.920;12.050;2023-06-22T07:10:10;16.97;;;12.20;;
13122;SDS011;6627;50.920;12.050;2023-06-22T07:12:37;15.03;;;11.93;;
13122;SDS011;6627;50.920;12.050;2023-06-22T07:15:05;15.00;;;11.20;;
13122;SDS011;6627;50.920;12.050;2023-06-22T07:17:35;10.20;;;9.20;;
13122;SDS011;6627;50.920;12.050;2023-06-22T07:20:04;9.77;;;8.63;;
13122;SDS011;6627;50.920;12.050;2023-06-22T07:22:37;11.60;;;8.70;;
13122;SDS011;6627;50.920;12.050;2023-06-22T07:25:05;9.00;;;7.97;;
13122;SDS011;6627;50.920;12.050;2023-06-22T07:27:37;8.90;;;8.00;;
13122;SDS011;6627;50.920;12.050;2023-06-22T07:30:08;8.80;;;7.90;;
13122;SDS011;6627;50.920;12.050;2023-06-22T07:32:37;9.53;;;8.30;;
13122;SDS011;6627;50.920;12.050;2023-06-22T07:35:05;10.17;;;7.87;;
13122;SDS011;6627;50.920;12.050;2023-06-22T07:37:33;9.07;;;7.43;;
13122;SDS011;6627;50.920;12.050;2023-06-22T07:40:01;8.93;;;8.03;;
13122;SDS011;6627;50.920;12.050;2023-06-22T07:42:31;9.27;;;8.10;;
13122;SDS011;6627;50.920;12.050;2023-06-22T07:45:00;8.53;;;7.73;;
13122;SDS011;6627;50.920;12.050;2023-06-22T07:47:29;8.67;;;7.63;;
13122;SDS011;6627;50.920;12.050;2023-06-22T07:49:59;9.17;;;7.30;;
13122;SDS011;6627;50.920;12.050;2023-06-22T07:52:27;8.50;;;7.23;;
13122;SDS011;6627;50.920;12.050;2023-06-22T07:54:54;8.47;;;7.67;;
13122;SDS011;6627;50.920;12.050;2023-06-22T07:57:21;9.27;;;7.87;;
13122;SDS011;6627;50.920;12.050;2023-06-22T07:59:48;8.60;;;7.10;;
13122;SDS011;6627;50.920;12.050;2023-06-22T08:02:18;8.23;;;7.43;;
13122;SDS011;6627;50.920;12.050;2023-06-22T08:04:46;8.27;;;7.37;;
13122;SDS011;6627;50.920;12.050;2023-06-22T08:07:13;7.90;;;7.13;;
13122;SDS011;6627;50.920;12.050;2023-06-22T08:09:42;10.20;;;7.37;;
13122;SDS011;6627;50.920;12.050;2023-06-22T08:12:14;11.23;;;7.60;;
13122;SDS011;6627;50.920;12.050;2023-06-22T08:14:41;8.00;;;7.30;;
13122;SDS011;6627;50.920;12.050;2023-06-22T08:17:09;8.90;;;8.00;;
13122;SDS011;6627;50.920;12.050;2023-06-22T08:19:39;8.43;;;7.17;;
13122;SDS011;6627;50.920;12.050;2023-06-22T08:22:06;9.70;;;6.83;;
13122;SDS011;6627;50.920;12.050;2023-06-22T08:24:33;7.73;;;6.97;;
13122;SDS011;6627;50.920;12.050;2023-06-22T08:27:01;8.23;;;6.80;;
13122;SDS011;6627;50.920;12.050;2023-06-22T08:29:28;9.60;;;6.97;;
13122;SDS011;6627;50.920;12.050;2023-06-22T08:31:55;9.77;;;7.77;;
13122;SDS011;6627;50.920;12.050;2023-06-22T08:34:22;7.17;;;6.47;;
13122;SDS011;6627;50.920;12.050;2023-06-22T08:36:52;8.50;;;7.67;;
13122;SDS011;6627;50.920;12.050;2023-06-22T08:39:19;9.47;;;7.10;;
13122;SDS011;6627;50.920;12.050;2023-06-22T08:41:47;7.37;;;6.60;;
13122;SDS011;6627;50.920;12.050;2023-06-22T08:44:16;7.87;;;7.07;;
13122;SDS011;6627;50.920;12.050;2023-06-22T08:46:45;9.93;;;7.07;;
13122;SDS011;6627;50.920;12.050;2023-06-22T08:49:12;7.20;;;6.50;;
13122;SDS011;6627;50.920;12.050;2023-06-22T08:51:39;7.30;;;6.50;;
13122;SDS011;6627;50.920;12.050;2023-06-22T08:54:08;9.80;;;6.57;;
13122;SDS011;6627;50.920;12.050;2023-06-22T08:56:35;8.70;;;7.40;;
13122;SDS011;6627;50.920;12.050;2023-06-22T08:59:03;7.67;;;6.97;;
13122;SDS011;6627;50.920;12.050;2023-06-22T09:01:33;8.25;;;6.97;;
13122;SDS011;6627;50.920;12.050;2023-06-22T09:04:00;7.57;;;6.80;;
13122;SDS011;6627;50.920;12.050;2023-06-22T09:06:27;7.47;;;6.77;;
13122;SDS011;6627;50.920;12.050;2023-06-22T09:08:56;7.90;;;7.20;;
13122;SDS011;6627;50.920;12.050;2023-06-22T09:11:26;8.30;;;7.47;;
13122;SDS011;6627;50.920;12.050;2023-06-22T09:13:54;8.55;;;7.22;;
13122;SDS011;6627;50.920;12.050;2023-06-22T09:16:21;8.73;;;7.60;;
13122;SDS011;6627;50.920;12.050;2023-06-22T09:18:48;8.52;;;7.68;;
13122;SDS011;6627;50.920;12.050;2023-06-22T09:21:15;9.23;;;7.63;;
13122;SDS011;6627;50.920;12.050;2023-06-22T09:23:43;8.30;;;7.47;;
13122;SDS011;6627;50.920;12.050;2023-06-22T09:26:15;8.52;;;7.63;;
13122;SDS011;6627;50.920;12.050;2023-06-22T09:28:44;9.02;;;8.07;;
13122;SDS011;6627;50.920;12.050;2023-06-22T09:31:14;10.35;;;7.85;;
13122;SDS011;6627;50.920;12.050;2023-06-22T09:33:42;9.75;;;8.07;;
13122;SDS011;6627;50.920;12.050;2023-06-22T09:36:10;8.82;;;7.93;;
13122;SDS011;6627;50.920;12.050;2023-06-22T09:38:37;8.32;;;7.20;;
13122;SDS011;6627;50.920;12.050;2023-06-22T09:41:05;9.50;;;8.57;;
13122;SDS011;6627;50.920;12.050;2023-06-22T09:43:32;11.68;;;8.18;;
13122;SDS011;6627;50.920;12.050;2023-06-22T09:46:02;8.38;;;7.68;;
13122;SDS011;6627;50.920;12.050;2023-06-22T09:48:29;11.95;;;7.70;;
13122;SDS011;6627;50.920;12.050;2023-06-22T09:50:56;9.07;;;8.30;;
13122;SDS011;6627;50.920;12.050;2023-06-22T09:53:23;9.15;;;7.50;;
13122;SDS011;6627;50.920;12.050;2023-06-22T09:55:51;8.80;;;8.00;;
13122;SDS011;6627;50.920;12.050;2023-06-22T09:58:18;8.02;;;7.22;;
13122;SDS011;6627;50.920;12.050;2023-06-22T10:00:46;8.32;;;7.55;;
13122;SDS011;6627;50.920;12.050;2023-06-22T10:03:14;8.15;;;7.45;;
13122;SDS011;6627;50.920;12.050;2023-06-22T10:05:41;9.10;;;8.15;;
13122;SDS011;6627;50.920;12.050;2023-06-22T10:08:09;9.05;;;7.53;;
13122;SDS011;6627;50.920;12.050;2023-06-22T10:10:36;8.27;;;7.47;;
13122;SDS011;6627;50.920;12.050;2023-06-22T10:13:07;8.73;;;7.80;;
13122;SDS011;6627;50.920;12.050;2023-06-22T10:15:36;9.25;;;8.20;;
13122;SDS011;6627;50.920;12.050;2023-06-22T10:18:04;13.32;;;8.13;;
13122;SDS011;6627;50.920;12.050;2023-06-22T10:20:33;9.75;;;7.75;;
13122;SDS011;6627;50.920;12.050;2023-06-22T10:23:00;9.95;;;8.35;;
13122;SDS011;6627;50.920;12.050;2023-06-22T10:25:27;9.05;;;7.70;;
13122;SDS011;6627;50.920;12.050;2023-06-22T10:27:54;8.25;;;7.55;;
13122;SDS011;6627;50.920;12.050;2023-06-22T10:30:22;7.55;;;6.90;;
13122;SDS011;6627;50.920;12.050;2023-06-22T10:32:49;7.93;;;7.18;;
13122;SDS011;6627;50.920;12.050;2023-06-22T10:35:16;7.63;;;6.88;;
13122;SDS011;6627;50.920;12.050;2023-06-22T10:37:45;8.55;;;7.63;;
13122;SDS011;6627;50.920;12.050;2023-06-22T10:40:13;8.98;;;7.68;;
13122;SDS011;6627;50.920;12.050;2023-06-22T10:42:44;8.18;;;7.43;;
13122;SDS011;6627;50.920;12.050;2023-06-22T10:45:11;8.73;;;7.78;;
13122;SDS011;6627;50.920;12.050;2023-06-22T10:47:39;8.00;;;7.30;;
13122;SDS011;6627;50.920;12.050;2023-06-22T10:50:07;7.63;;;6.95;;
13122;SDS011;6627;50.920;12.050;2023-06-22T10:52:35;7.95;;;7.25;;
13122;SDS011;6627;50.920;12.050;2023-06-22T10:55:04;8.35;;;7.43;;
13122;SDS011;6627;50.920;12.050;2023-06-22T10:57:32;8.27;;;7.47;;
13122;SDS011;6627;50.920;12.050;2023-06-22T10:59:59;8.85;;;6.95;;
13122;SDS011;6627;50.920;12.050;2023-06-22T11:02:27;7.90;;;7.10;;
13122;SDS011;6627;50.920;12.050;2023-06-22T11:04:54;8.02;;;7.20;;
13122;SDS011;6627;50.920;12.050;2023-06-22T11:07:21;8.90;;;7.43;;
13122;SDS011;6627;50.920;12.050;2023-06-22T11:09:48;7.93;;;7.10;;
13122;SDS011;6627;50.920;12.050;2023-06-22T11:12:17;8.20;;;7.50;;
13122;SDS011;6627;50.920;12.050;2023-06-22T11:14:44;8.10;;;7.30;;
13122;SDS011;6627;50.920;12.050;2023-06-22T11:17:11;8.13;;;7.32;;
13122;SDS011;6627;50.920;12.050;2023-06-22T11:19:39;8.85;;;7.78;;
13122;SDS011;6627;50.920;12.050;2023-06-22T11:22:06;7.15;;;6.55;;
13122;SDS011;6627;50.920;12.050;2023-06-22T11:24:33;7.20;;;6.65;;
13122;SDS011;6627;50.920;12.050;2023-06-22T11:27:00;7.65;;;7.03;;
13122;SDS011;6627;50.920;12.050;2023-06-22T11:29:29;7.78;;;7.07;;
13122;SDS011;6627;50.920;12.050;2023-06-22T11:31:56;7.65;;;6.95;;
13122;SDS011;6627;50.920;12.050;2023-06-22T11:34:23;7.70;;;7.07;;
13122;SDS011;6627;50.920;12.050;2023-06-22T11:36:51;10.50;;;7.15;;
13122;SDS011;6627;50.920;12.050;2023-06-22T11:39:18;7.38;;;6.45;;
13122;SDS011;6627;50.920;12.050;2023-06-22T11:41:46;11.98;;;7.00;;
13122;SDS011;6627;50.920;12.050;2023-06-22T11:44:14;7.25;;;6.60;;
13122;SDS011;6627;50.920;12.050;2023-06-22T11:46:43;7.40;;;6.80;;
13122;SDS011;6627;50.920;12.050;2023-06-22T11:49:11;7.85;;;7.10;;
13122;SDS011;6627;50.920;12.050;2023-06-22T11:51:38;7.40;;;6.50;;
13122;SDS011;6627;50.920;12.050;2023-06-22T11:54:06;7.68;;;6.80;;
13122;SDS011;6627;50.920;12.050;2023-06-22T11:56:33;7.43;;;6.60;;
13122;SDS011;6627;50.920;12.050;2023-06-22T11:59:01;7.95;;;6.65;;
13122;SDS011;6627;50.920;12.050;2023-06-22T12:01:28;6.97;;;6.38;;
13122;SDS011;6627;50.920;12.050;2023-06-22T12:04:00;7.03;;;6.43;;
13122;SDS011;6627;50.920;12.050;2023-06-22T12:06:30;7.28;;;6.63;;
13122;SDS011;6627;50.920;12.050;2023-06-22T12:08:58;8.20;;;6.97;;
13122;SDS011;6627;50.920;12.050;2023-06-22T12:11:26;7.53;;;6.60;;
13122;SDS011;6627;50.920;12.050;2023-06-22T12:13:54;7.00;;;6.40;;
13122;SDS011;6627;50.920;12.050;2023-06-22T12:16:21;7.40;;;6.80;;
13122;SDS011;6627;50.920;12.050;2023-06-22T12:18:50;7.18;;;6.47;;
13122;SDS011;6627;50.920;12.050;2023-06-22T12:21:19;7.95;;;7.15;;
13122;SDS011;6627;50.920;12.050;2023-06-22T12:23:46;7.10;;;6.13;;
13122;SDS011;6627;50.920;12.050;2023-06-22T12:26:14;7.20;;;6.53;;
13122;SDS011;6627;50.920;12.050;2023-06-22T12:28:42;7.47;;;6.88;;
13122;SDS011;6627;50.920;12.050;2023-06-22T12:31:10;7.80;;;7.07;;
13122;SDS011;6627;50.920;12.050;2023-06-22T12:33:38;8.45;;;6.95;;
13122;SDS011;6627;50.920;12.050;2023-06-22T12:36:05;12.15;;;6.50;;
13122;SDS011;6627;50.920;12.050;2023-06-22T12:38:35;8.48;;;7.20;;
13122;SDS011;6627;50.920;12.050;2023-06-22T12:41:02;9.68;;;6.80;;
13122;SDS011;6627;50.920;12.050;2023-06-22T12:43:30;7.65;;;6.85;;
13122;SDS011;6627;50.920;12.050;2023-06-22T12:45:58;7.63;;;6.47;;
13122;SDS011;6627;50.920;12.050;2023-06-22T12:48:25;7.22;;;6.50;;
13122;SDS011;6627;50.920;12.050;2023-06-22T12:50:53;8.10;;;6.93;;
13122;SDS011;6627;50.920;12.050;2023-06-22T12:53:21;6.97;;;6.45;;
13122;SDS011;6627;50.920;12.050;2023-06-22T12:55:50;8.32;;;6.93;;
13122;SDS011;6627;50.920;12.050;2023-06-22T12:58:18;8.57;;;6.63;;
13122;SDS011;6627;50.920;12.050;2023-06-22T13:00:45;7.30;;;6.30;;
13122;SDS011;6627;50.920;12.050;2023-06-22T13:03:13;7.97;;;7.03;;
13122;SDS011;6627;50.920;12.050;2023-06-22T13:05:41;7.82;;;6.70;;
13122;SDS011;6627;50.920;12.050;2023-06-22T13:08:09;13.50;;;7.30;;
13122;SDS011;6627;50.920;12.050;2023-06-22T13:10:37;7.93;;;7.10;;
13122;SDS011;6627;50.920;12.050;2023-06-22T13:13:06;7.55;;;6.95;;
13122;SDS011;6627;50.920;12.050;2023-06-22T13:15:33;8.13;;;6.88;;
13122;SDS011;6627;50.920;12.050;2023-06-22T13:18:02;8.18;;;6.35;;
13122;SDS011;6627;50.920;12.050;2023-06-22T13:20:29;7.60;;;6.68;;
13122;SDS011;6627;50.920;12.050;2023-06-22T13:22:57;8.05;;;7.10;;
13122;SDS011;6627;50.920;12.050;2023-06-22T13:25:25;7.43;;;6.68;;
13122;SDS011;6627;50.920;12.050;2023-06-22T13:27:52;7.70;;;6.97;;
13122;SDS011;6627;50.920;12.050;2023-06-22T13:30:21;7.15;;;6.45;;
13122;SDS011;6627;50.920;12.050;2023-06-22T13:32:49;9.07;;;7.45;;
13122;SDS011;6627;50.920;12.050;2023-06-22T13:35:16;8.60;;;7.13;;
13122;SDS011;6627;50.920;12.050;2023-06-22T13:37:44;7.93;;;6.70;;
13122;SDS011;6627;50.920;12.050;2023-06-22T13:40:12;7.47;;;6.78;;
13122;SDS011;6627;50.920;12.050;2023-06-22T13:42:40;7.97;;;7.18;;
13122;SDS011;6627;50.920;12.050;2023-06-22T13:45:07;7.95;;;7.18;;
13122;SDS011;6627;50.920;12.050;2023-06-22T13:47:37;8.05;;;7.25;;
13122;SDS011;6627;50.920;12.050;2023-06-22T13:50:05;9.82;;;6.95;;
13122;SDS011;6627;50.920;12.050;2023-06-22T13:52:33;7.40;;;6.70;;
13122;SDS011;6627;50.920;12.050;2023-06-22T13:55:02;8.25;;;7.18;;
13122;SDS011;6627;50.920;12.050;2023-06-22T13:57:31;7.30;;;6.60;;
13122;SDS011;6627;50.920;12.050;2023-06-22T13:59:59;7.20;;;6.60;;
13122;SDS011;6627;50.920;12.050;2023-06-22T14:02:27;7.68;;;6.97;;
13122;SDS011;6627;50.920;12.050;2023-06-22T14:04:56;7.55;;;6.85;;
13122;SDS011;6627;50.920;12.050;2023-06-22T14:07:23;7.85;;;7.15;;
13122;SDS011;6627;50.920;12.050;2023-06-22T14:09:51;7.88;;;7.18;;
13122;SDS011;6627;50.920;12.050;2023-06-22T14:12:18;8.23;;;7.32;;
13122;SDS011;6627;50.920;12.050;2023-06-22T14:14:46;8.73;;;7.07;;
13122;SDS011;6627;50.920;12.050;2023-06-22T14:17:13;11.02;;;7.65;;
13122;SDS011;6627;50.920;12.050;2023-06-22T14:19:41;8.27;;;7.25;;
13122;SDS011;6627;50.920;12.050;2023-06-22T14:22:10;9.50;;;7.22;;
13122;SDS011;6627;50.920;12.050;2023-06-22T14:24:37;9.82;;;7.00;;
13122;SDS011;6627;50.920;12.050;2023-06-22T14:27:05;7.95;;;7.00;;
13122;SDS011;6627;50.920;12.050;2023-06-22T14:29:34;9.38;;;6.88;;
13122;SDS011;6627;50.920;12.050;2023-06-22T14:32:01;8.23;;;6.60;;
13122;SDS011;6627;50.920;12.050;2023-06-22T14:34:30;7.78;;;7.07;;
13122;SDS011;6627;50.920;12.050;2023-06-22T14:36:57;9.13;;;7.22;;
13122;SDS011;6627;50.920;12.050;2023-06-22T14:39:26;9.40;;;6.75;;
13122;SDS011;6627;50.920;12.050;2023-06-22T14:41:54;6.95;;;6.35;;
13122;SDS011;6627;50.920;12.050;2023-06-22T14:44:23;9.65;;;6.97;;